createdAt,value
2018-06-19T00:00:53.631Z,3.70
2018-06-19T00:03:23.730Z,3.93
2018-06-19T00:05:54.525Z,3.37
2018-06-19T00:08:24.828Z,3.30
2018-06-19T00:10:55.641Z,3.20
2018-06-19T00:13:25.986Z,3.47
2018-06-19T00:15:56.388Z,4.30
2018-06-19T00:18:30.443Z,4.03
2018-06-19T00:21:09.135Z,4.27
2018-06-19T00:23:39.429Z,3.63
2018-06-19T00:26:10.247Z,3.93
2018-06-19T00:28:44.082Z,4.20
2018-06-19T00:31:14.418Z,3.97
2018-06-19T00:33:44.463Z,3.93
2018-06-19T00:36:14.547Z,4.30
2018-06-19T00:38:44.590Z,3.43
2018-06-19T00:41:15.254Z,3.80
2018-06-19T00:43:45.304Z,3.80
2018-06-19T00:46:16.984Z,3.80
2018-06-19T00:48:47.056Z,3.50
2018-06-19T00:51:17.430Z,3.97
2018-06-19T00:53:47.686Z,4.23
2018-06-19T00:56:34.528Z,4.50
2018-06-19T00:59:05.907Z,4.60
2018-06-19T01:01:36.597Z,4.40
2018-06-19T01:04:06.847Z,4.93
2018-06-19T01:06:37.129Z,4.57
2018-06-19T01:09:09.344Z,5.03
2018-06-19T01:11:39.933Z,5.40
2018-06-19T01:14:10.172Z,5.67
2018-06-19T01:16:40.703Z,5.40
2018-06-19T01:19:11.256Z,5.90
2018-06-19T01:21:41.757Z,6.93
2018-06-19T01:24:11.784Z,6.13
2018-06-19T01:26:41.930Z,5.50
2018-06-19T01:29:12.335Z,5.70
2018-06-19T01:31:42.419Z,5.10
2018-06-19T01:34:12.536Z,5.87
2018-06-19T01:36:42.651Z,5.43
2018-06-19T01:39:12.678Z,4.60
2018-06-19T01:41:42.752Z,5.20
2018-06-19T01:44:13.234Z,4.47
2018-06-19T01:46:43.440Z,5.70
2018-06-19T01:49:13.566Z,5.03
2018-06-19T01:51:43.913Z,5.07
2018-06-19T01:54:14.152Z,7.67
2018-06-19T01:56:44.852Z,7.17
2018-06-19T01:59:15.034Z,5.70
2018-06-19T02:01:45.358Z,7.90
2018-06-19T02:04:15.579Z,6.47
2018-06-19T02:06:45.933Z,5.70
2018-06-19T02:09:17.029Z,6.87
2018-06-19T02:11:47.310Z,6.70
2018-06-19T02:14:17.439Z,6.03
2018-06-19T02:16:47.745Z,4.93
2018-06-19T02:19:18.029Z,5.53
2018-06-19T02:21:48.187Z,6.27
2018-06-19T02:24:18.466Z,5.87
2018-06-19T02:26:48.985Z,5.63
2018-06-19T02:29:19.363Z,7.13
2018-06-19T02:31:49.662Z,6.70
2018-06-19T02:34:19.771Z,7.13
2018-06-19T02:36:50.551Z,7.00
2018-06-19T02:39:20.640Z,8.37
2018-06-19T02:41:51.301Z,8.80
2018-06-19T02:44:21.353Z,7.30
2018-06-19T02:46:52.051Z,8.00
2018-06-19T02:49:22.600Z,8.03
2018-06-19T02:51:53.049Z,8.53
2018-06-19T02:54:23.134Z,8.07
2018-06-19T02:56:53.454Z,8.60
2018-06-19T02:59:23.736Z,7.80
2018-06-19T03:01:54.219Z,9.10
2018-06-19T03:04:24.456Z,9.33
2018-06-19T03:06:54.711Z,7.60
2018-06-19T03:09:25.087Z,10.03
2018-06-19T03:11:55.216Z,7.50
2018-06-19T03:14:25.535Z,6.80
2018-06-19T03:16:55.702Z,8.27
2018-06-19T03:19:25.730Z,7.33
2018-06-19T03:21:56.183Z,7.07
2018-06-19T03:24:26.339Z,7.30
2018-06-19T03:26:56.836Z,8.87
2018-06-19T03:29:27.176Z,7.87
2018-06-19T03:31:57.817Z,8.70
2018-06-19T03:34:27.929Z,8.07
2018-06-19T03:36:58.244Z,8.47
2018-06-19T03:39:28.821Z,7.20
2018-06-19T03:41:58.873Z,7.20
2018-06-19T03:44:28.968Z,8.40
2018-06-19T03:46:59.127Z,8.00
2018-06-19T03:49:29.538Z,7.87
2018-06-19T03:51:59.727Z,8.87
2018-06-19T03:54:30.017Z,7.53
2018-06-19T03:57:00.803Z,7.90
2018-06-19T03:59:31.473Z,8.67
2018-06-19T04:02:01.539Z,7.60
2018-06-19T04:04:31.657Z,7.90
2018-06-19T04:07:01.915Z,9.50
2018-06-19T04:09:32.108Z,9.27
2018-06-19T04:12:02.123Z,9.10
2018-06-19T04:14:32.198Z,7.20
2018-06-19T04:17:02.750Z,8.10
2018-06-19T04:19:33.178Z,7.53
2018-06-19T04:22:03.766Z,6.90
2018-06-19T04:24:34.096Z,7.20
2018-06-19T04:27:04.115Z,6.30
2018-06-19T04:29:34.171Z,5.80
2018-06-19T04:32:04.360Z,5.97
2018-06-19T04:34:34.740Z,5.87
2018-06-19T04:37:04.866Z,5.93
2018-06-19T04:39:35.188Z,5.73
2018-06-19T04:42:05.573Z,5.27
2018-06-19T04:44:36.041Z,4.90
2018-06-19T04:47:06.596Z,5.17
2018-06-19T04:49:36.851Z,4.90
2018-06-19T04:52:07.243Z,4.70
2018-06-19T04:54:37.562Z,4.80
2018-06-19T04:57:07.947Z,4.13
2018-06-19T04:59:38.258Z,4.23
2018-06-19T05:02:08.474Z,3.63
2018-06-19T05:04:38.572Z,3.20
2018-06-19T05:07:08.649Z,3.53
2018-06-19T05:09:39.116Z,2.70
2018-06-19T05:12:09.515Z,3.40
2018-06-19T05:14:39.562Z,3.27
2018-06-19T05:17:09.820Z,3.50
2018-06-19T05:19:39.844Z,3.20
2018-06-19T05:22:09.852Z,2.90
2018-06-19T05:24:39.920Z,3.10
2018-06-19T05:27:10.798Z,2.70
2018-06-19T05:29:41.512Z,2.80
2018-06-19T05:32:12.442Z,2.83
2018-06-19T05:34:43.038Z,2.70
2018-06-19T05:37:13.962Z,2.75
2018-06-19T05:39:44.528Z,2.62
2018-06-19T05:42:15.298Z,3.05
2018-06-19T05:44:45.912Z,3.25
2018-06-19T05:47:16.897Z,3.42
2018-06-19T05:49:47.511Z,2.60
2018-06-19T05:52:18.118Z,2.60
2018-06-19T05:54:50.526Z,2.47
2018-06-19T05:57:21.386Z,2.75
2018-06-19T05:59:52.985Z,2.90
2018-06-19T06:02:23.876Z,2.95
2018-06-19T06:04:54.491Z,2.50
2018-06-19T06:07:25.120Z,3.00
2018-06-19T06:09:55.707Z,2.60
2018-06-19T06:12:26.470Z,2.50
2018-06-19T06:14:57.256Z,2.60
2018-06-19T06:17:27.867Z,2.70
2018-06-19T06:19:58.551Z,2.50
2018-06-19T06:22:29.394Z,2.58
2018-06-19T06:25:00.166Z,2.58
2018-06-19T06:27:31.249Z,2.92
2018-06-19T06:30:01.881Z,2.40
2018-06-19T06:32:32.451Z,2.60
2018-06-19T06:35:03.005Z,2.35
2018-06-19T06:37:33.709Z,2.55
2018-06-19T06:40:05.023Z,2.60
2018-06-19T06:42:35.539Z,2.40
2018-06-19T06:45:06.089Z,2.12
2018-06-19T06:47:36.909Z,2.35
2018-06-19T06:50:07.590Z,2.45
2018-06-19T06:52:38.443Z,2.67
2018-06-19T06:55:09.083Z,2.45
2018-06-19T06:57:39.706Z,2.60
2018-06-19T07:00:10.542Z,2.45
2018-06-19T07:02:41.192Z,2.55
2018-06-19T07:05:12.135Z,2.42
2018-06-19T07:07:42.751Z,2.20
2018-06-19T07:10:13.597Z,2.42
2018-06-19T07:12:44.328Z,2.35
2018-06-19T07:15:15.377Z,2.30
2018-06-19T07:17:46.008Z,2.22
2018-06-19T07:20:16.655Z,2.50
2018-06-19T07:22:47.339Z,2.30
2018-06-19T07:25:17.863Z,2.00
2018-06-19T07:27:48.383Z,2.22
2018-06-19T07:30:18.952Z,2.25
2018-06-19T07:32:49.722Z,2.27
2018-06-19T07:35:20.557Z,1.90
2018-06-19T07:37:52.386Z,2.40
2018-06-19T07:40:23.159Z,2.05
2018-06-19T07:42:54.072Z,1.87
2018-06-19T07:45:24.818Z,2.00
2018-06-19T07:47:55.547Z,1.92
2018-06-19T07:50:26.056Z,2.20
2018-06-19T07:52:56.682Z,2.10
2018-06-19T07:55:27.462Z,1.95
2018-06-19T07:57:58.169Z,2.22
2018-06-19T08:00:28.923Z,2.20
2018-06-19T08:02:59.749Z,2.20
2018-06-19T08:05:30.650Z,2.20
2018-06-19T08:08:01.158Z,2.20
2018-06-19T08:10:31.683Z,2.15
2018-06-19T08:13:02.487Z,2.00
2018-06-19T08:15:33.066Z,2.33
2018-06-19T08:18:03.605Z,2.33
2018-06-19T08:20:34.310Z,2.30
2018-06-19T08:23:04.897Z,2.37
2018-06-19T08:25:35.471Z,2.00
2018-06-19T08:28:06.375Z,2.17
2018-06-19T08:30:37.499Z,1.98
2018-06-19T08:33:08.430Z,2.12
2018-06-19T08:35:39.210Z,2.20
2018-06-19T08:38:09.885Z,1.80
2018-06-19T08:40:40.633Z,2.12
2018-06-19T08:43:11.131Z,2.12
2018-06-19T08:45:41.829Z,2.08
2018-06-19T08:48:12.408Z,1.80
2018-06-19T08:50:43.383Z,1.92
2018-06-19T08:53:16.168Z,1.90
2018-06-19T08:55:46.953Z,1.92
2018-06-19T08:58:17.627Z,2.20
2018-06-19T09:00:48.149Z,1.75
2018-06-19T09:03:18.654Z,1.85
2018-06-19T09:05:50.502Z,1.50
2018-06-19T09:08:22.476Z,1.50
2018-06-19T09:10:54.144Z,1.60
2018-06-19T09:13:24.967Z,1.60
2018-06-19T09:15:55.638Z,1.65
2018-06-19T09:18:26.393Z,1.70
2018-06-19T09:20:56.914Z,1.57
2018-06-19T09:23:27.592Z,1.55
2018-06-19T09:25:58.074Z,1.90
2018-06-19T09:28:28.778Z,1.50
2018-06-19T09:30:59.301Z,1.80
2018-06-19T09:33:30.296Z,1.80
2018-06-19T09:36:00.878Z,1.77
2018-06-19T09:38:32.119Z,2.10
2018-06-19T09:41:03.061Z,1.67
2018-06-19T09:43:33.993Z,1.60
2018-06-19T09:46:04.912Z,1.90
2018-06-19T09:48:36.033Z,1.65
2018-06-19T09:51:06.548Z,1.60
2018-06-19T09:53:37.142Z,1.80
2018-06-19T09:56:07.759Z,2.00
2018-06-19T09:58:38.360Z,1.60
2018-06-19T10:01:09.110Z,1.60
2018-06-19T10:03:39.806Z,1.67
2018-06-19T10:06:10.679Z,1.40
2018-06-19T10:08:42.144Z,1.47
2018-06-19T10:11:13.449Z,1.30
2018-06-19T10:13:43.922Z,1.50
2018-06-19T10:16:14.745Z,1.27
2018-06-19T10:18:45.467Z,1.47
2018-06-19T10:21:16.498Z,1.40
2018-06-19T10:23:47.891Z,1.50
2018-06-19T10:26:19.319Z,1.30
2018-06-19T10:28:50.091Z,1.40
2018-06-19T10:31:20.585Z,1.20
2018-06-19T10:33:51.532Z,1.27
2018-06-19T10:36:22.974Z,1.22
2018-06-19T10:38:53.914Z,1.10
2018-06-19T10:41:25.056Z,1.30
2018-06-19T10:43:56.091Z,1.37
2018-06-19T10:46:27.782Z,1.40
2018-06-19T10:48:58.753Z,1.60
2018-06-19T10:51:29.415Z,1.60
2018-06-19T10:54:00.921Z,1.40
2018-06-19T10:56:31.584Z,1.75
2018-06-19T10:59:02.122Z,1.40
2018-06-19T11:01:32.914Z,1.47
2018-06-19T11:04:03.528Z,1.52
2018-06-19T11:06:34.059Z,1.57
2018-06-19T11:09:07.234Z,1.37
2018-06-19T11:11:37.948Z,19.42
2018-06-19T11:14:08.912Z,1.40
2018-06-19T11:16:39.606Z,1.52
2018-06-19T11:19:10.137Z,1.57
2018-06-19T11:21:40.654Z,4.17
2018-06-19T11:24:11.206Z,1.25
2018-06-19T11:26:41.955Z,1.22
2018-06-19T11:29:12.706Z,1.40
2018-06-19T11:31:43.228Z,1.30
2018-06-19T11:34:13.728Z,1.60
2018-06-19T11:36:45.562Z,1.57
2018-06-19T11:39:17.159Z,1.30
2018-06-19T11:41:47.857Z,1.50
2018-06-19T11:44:19.310Z,1.50
2018-06-19T11:46:49.809Z,1.45
2018-06-19T11:49:20.871Z,1.67
2018-06-19T11:51:51.379Z,1.47
2018-06-19T11:54:22.365Z,1.82
2018-06-19T11:56:52.973Z,1.40
2018-06-19T11:59:24.150Z,1.35
2018-06-19T12:01:54.873Z,1.40
2018-06-19T12:04:25.515Z,1.52
2018-06-19T12:06:56.019Z,1.60
2018-06-19T12:09:26.486Z,1.32
2018-06-19T12:11:57.230Z,1.35
2018-06-19T12:14:28.638Z,1.55
2018-06-19T12:16:59.589Z,1.37
2018-06-19T12:19:30.462Z,1.50
2018-06-19T12:22:01.011Z,1.40
2018-06-19T12:24:31.535Z,1.60
2018-06-19T12:27:02.326Z,1.50
2018-06-19T12:29:32.966Z,1.50
2018-06-19T12:32:03.653Z,1.32
2018-06-19T12:34:34.430Z,1.40
2018-06-19T12:37:04.940Z,1.60
2018-06-19T12:39:35.472Z,1.90
2018-06-19T12:42:06.359Z,1.65
2018-06-19T12:44:36.918Z,1.42
2018-06-19T12:47:07.541Z,1.20
2018-06-19T12:49:54.988Z,1.40
2018-06-19T12:52:42.511Z,1.37
2018-06-19T12:55:54.849Z,1.60
2018-06-19T12:58:25.449Z,1.50
2018-06-19T13:00:56.285Z,1.42
2018-06-19T13:03:43.816Z,1.50
2018-06-19T13:06:29.487Z,1.65
2018-06-19T13:09:00.077Z,1.62
2018-06-19T13:11:31.553Z,1.60
2018-06-19T13:14:19.112Z,1.60
2018-06-19T13:17:06.467Z,1.55
2018-06-19T13:19:53.761Z,2.00
2018-06-19T13:22:24.303Z,1.60
2018-06-19T13:24:55.140Z,1.85
2018-06-19T13:27:25.638Z,2.00
2018-06-19T13:32:15.327Z,2.27
2018-06-19T13:34:45.899Z,1.80
2018-06-19T13:37:17.084Z,1.87
2018-06-19T13:39:52.300Z,2.10
2018-06-19T13:42:39.639Z,2.00
2018-06-19T13:45:10.514Z,5.53
2018-06-19T13:47:40.985Z,2.92
2018-06-19T13:50:11.711Z,1.92
2018-06-19T13:52:42.418Z,1.90
2018-06-19T13:57:35.915Z,2.00
2018-06-19T14:00:10.697Z,2.00
2018-06-19T14:02:41.460Z,1.80
2018-06-19T14:05:12.957Z,2.30
2018-06-19T14:08:09.958Z,2.22
2018-06-19T14:11:00.340Z,2.12
2018-06-19T14:13:32.122Z,2.20
2018-06-19T14:16:02.952Z,2.37
2018-06-19T14:18:33.492Z,2.33
2018-06-19T14:21:04.233Z,2.27
2018-06-19T14:23:34.706Z,2.00
2018-06-19T14:26:05.413Z,2.72
2018-06-19T14:28:36.502Z,2.10
2018-06-19T14:31:07.023Z,2.30
2018-06-19T14:33:37.531Z,2.25
2018-06-19T14:36:08.175Z,1.90
2018-06-19T14:38:38.899Z,2.00
2018-06-19T14:41:09.704Z,2.27
2018-06-19T14:43:40.476Z,2.02
2018-06-19T14:46:11.222Z,1.77
2018-06-19T14:48:41.846Z,2.10
2018-06-19T14:51:12.386Z,1.82
2018-06-19T14:53:42.895Z,2.20
2018-06-19T14:56:13.430Z,2.30
2018-06-19T14:58:43.927Z,2.15
2018-06-19T15:01:14.457Z,2.27
2018-06-19T15:03:45.017Z,3.00
2018-06-19T15:06:16.339Z,1.98
2018-06-19T15:08:46.821Z,2.22
2018-06-19T15:11:17.271Z,2.42
2018-06-19T15:13:47.945Z,2.10
2018-06-19T15:16:18.644Z,2.20
2018-06-19T15:18:49.156Z,2.22
2018-06-19T15:21:19.742Z,1.92
2018-06-19T15:23:50.670Z,1.90
2018-06-19T15:26:21.214Z,2.10
2018-06-19T15:28:51.806Z,2.40
2018-06-19T15:31:22.546Z,2.33
2018-06-19T15:33:53.164Z,2.40
2018-06-19T15:36:24.046Z,2.30
2018-06-19T15:38:54.538Z,2.30
2018-06-19T15:41:25.336Z,2.33
2018-06-19T15:43:55.864Z,2.20
2018-06-19T15:46:26.371Z,2.92
2018-06-19T15:48:57.254Z,2.65
2018-06-19T15:51:29.193Z,2.22
2018-06-19T15:53:59.847Z,2.50
2018-06-19T15:56:30.635Z,2.10
2018-06-19T15:59:01.213Z,2.30
2018-06-19T16:01:32.010Z,2.50
2018-06-19T16:04:02.624Z,1.90
2018-06-19T16:06:33.503Z,2.33
2018-06-19T16:09:05.870Z,2.00
2018-06-19T16:11:36.535Z,2.40
2018-06-19T16:14:07.472Z,2.27
2018-06-19T16:16:38.374Z,2.37
2018-06-19T16:19:09.242Z,2.10
2018-06-19T16:21:39.863Z,2.20
2018-06-19T16:24:10.466Z,2.08
2018-06-19T16:26:41.816Z,1.92
2018-06-19T16:29:12.417Z,2.20
2018-06-19T16:31:43.506Z,2.37
2018-06-19T16:34:14.205Z,2.10
2018-06-19T16:36:44.923Z,2.10
2018-06-19T16:39:15.452Z,2.27
2018-06-19T16:41:46.435Z,2.08
2018-06-19T16:44:17.132Z,2.30
2018-06-19T16:46:47.755Z,1.90
2018-06-19T16:49:19.334Z,2.17
2018-06-19T16:51:50.119Z,2.00
2018-06-19T16:54:21.010Z,2.30
2018-06-19T16:56:51.721Z,2.35
2018-06-19T16:59:23.006Z,2.17
2018-06-19T17:01:53.518Z,2.00
2018-06-19T17:04:24.429Z,1.82
2018-06-19T17:06:54.989Z,2.08
2018-06-19T17:09:28.156Z,1.87
2018-06-19T17:11:58.712Z,2.10
2018-06-19T17:14:29.375Z,1.90
2018-06-19T17:17:00.281Z,1.98
2018-06-19T17:19:31.069Z,2.00
2018-06-19T17:22:02.265Z,1.90
2018-06-19T17:24:33.426Z,2.02
2018-06-19T17:27:04.694Z,1.82
2018-06-19T17:29:35.369Z,2.02
2018-06-19T17:32:06.480Z,1.80
2018-06-19T17:34:37.243Z,2.00
2018-06-19T17:37:08.259Z,2.02
2018-06-19T17:39:39.202Z,1.90
2018-06-19T17:42:10.423Z,1.55
2018-06-19T17:44:41.357Z,2.10
2018-06-19T17:47:11.893Z,2.15
2018-06-19T17:49:42.503Z,1.80
2018-06-19T17:52:13.112Z,2.42
2018-06-19T17:54:43.878Z,1.95
2018-06-19T17:57:14.439Z,1.90
2018-06-19T17:59:45.098Z,2.45
2018-06-19T18:02:15.998Z,2.50
2018-06-19T18:04:46.575Z,2.12
2018-06-19T18:07:17.300Z,2.40
2018-06-19T18:09:47.883Z,2.60
2018-06-19T18:12:18.427Z,2.62
2018-06-19T18:14:49.304Z,2.40
2018-06-19T18:17:19.914Z,2.65
2018-06-19T18:19:50.485Z,2.60
2018-06-19T18:22:21.393Z,2.40
2018-06-19T18:24:52.019Z,3.12
2018-06-19T18:27:22.571Z,3.20
2018-06-19T18:29:53.431Z,3.37
2018-06-19T18:32:24.142Z,4.17
2018-06-19T18:34:54.834Z,3.77
2018-06-19T18:37:25.521Z,3.98
2018-06-19T18:39:56.105Z,4.42
2018-06-19T18:42:26.726Z,4.33
2018-06-19T18:44:57.882Z,4.22
2018-06-19T18:47:28.657Z,4.85
2018-06-19T18:49:59.434Z,4.87
2018-06-19T18:52:30.451Z,4.47
2018-06-19T18:55:01.029Z,4.50
2018-06-19T18:57:31.689Z,4.55
2018-06-19T19:00:02.774Z,4.60
2018-06-19T19:02:33.412Z,4.60
2018-06-19T19:05:04.077Z,4.97
2018-06-19T19:07:34.927Z,5.10
2018-06-19T19:10:11.740Z,4.85
2018-06-19T19:12:42.454Z,5.55
2018-06-19T19:15:18.437Z,4.90
2018-06-19T19:17:54.139Z,4.67
2018-06-19T19:20:24.781Z,4.85
2018-06-19T19:22:55.468Z,4.97
2018-06-19T19:25:26.988Z,5.15
2018-06-19T19:30:06.295Z,5.10
2018-06-19T19:32:38.691Z,5.12
2018-06-19T19:35:09.275Z,5.08
2018-06-19T19:37:45.294Z,5.03
2018-06-19T19:40:15.907Z,4.83
2018-06-19T19:42:46.492Z,5.10
2018-06-19T19:45:17.168Z,5.15
2018-06-19T19:47:52.614Z,4.80
2018-06-19T19:50:23.290Z,5.08
2018-06-19T19:52:54.125Z,5.22
2018-06-19T19:55:24.414Z,5.50
2018-06-19T19:57:59.968Z,5.20
2018-06-19T20:00:30.162Z,5.47
2018-06-19T20:03:00.469Z,5.23
2018-06-19T20:05:30.721Z,5.50
2018-06-19T20:08:01.117Z,5.40
2018-06-19T20:10:31.422Z,6.03
2018-06-19T20:13:02.863Z,5.20
2018-06-19T20:15:33.067Z,5.13
2018-06-19T20:18:03.295Z,5.60
2018-06-19T20:20:34.319Z,5.93
2018-06-19T20:23:04.593Z,5.40
2018-06-19T20:25:35.139Z,4.90
2018-06-19T20:28:06.652Z,5.80
2018-06-19T20:30:37.383Z,5.80
2018-06-19T20:33:07.645Z,5.70
2018-06-19T20:35:37.866Z,5.63
2018-06-19T20:38:08.021Z,6.27
2018-06-19T20:40:38.087Z,5.63
2018-06-19T20:43:09.024Z,5.43
2018-06-19T20:45:40.135Z,5.67
2018-06-19T20:48:10.495Z,6.10
2018-06-19T20:50:41.062Z,5.60
2018-06-19T20:53:11.824Z,5.90
2018-06-19T20:55:43.099Z,5.30
2018-06-19T20:58:13.955Z,6.13
2018-06-19T21:00:44.430Z,5.73
2018-06-19T21:03:15.047Z,5.33
2018-06-19T21:05:45.259Z,5.77
2018-06-19T21:08:16.002Z,6.10
2018-06-19T21:10:46.082Z,5.50
2018-06-19T21:13:16.524Z,5.83
2018-06-19T21:15:46.605Z,5.57
2018-06-19T21:18:16.688Z,5.13
2018-06-19T21:20:46.655Z,5.10
2018-06-19T21:23:16.805Z,4.90
2018-06-19T21:25:46.741Z,4.90
2018-06-19T21:28:16.777Z,5.30
2018-06-19T21:30:46.724Z,4.90
2018-06-19T21:33:16.939Z,5.37
2018-06-19T21:35:47.268Z,4.63
2018-06-19T21:38:17.343Z,4.63
2018-06-19T21:40:47.337Z,4.07
2018-06-19T21:43:17.595Z,4.27
2018-06-19T21:45:47.856Z,4.23
2018-06-19T21:48:17.925Z,4.57
2018-06-19T21:50:47.894Z,4.20
2018-06-19T21:53:18.209Z,4.50
2018-06-19T21:55:48.362Z,4.40
2018-06-19T21:58:18.486Z,4.40
2018-06-19T22:00:48.430Z,4.30
2018-06-19T22:03:18.453Z,4.30
2018-06-19T22:05:49.055Z,3.80
2018-06-19T22:08:19.146Z,4.33
2018-06-19T22:10:49.484Z,4.07
2018-06-19T22:13:19.588Z,4.03
2018-06-19T22:15:49.682Z,4.10
2018-06-19T22:18:19.683Z,3.80
2018-06-19T22:20:49.975Z,3.53
2018-06-19T22:23:20.252Z,3.80
2018-06-19T22:25:50.256Z,3.70
2018-06-19T22:28:20.694Z,4.00
2018-06-19T22:30:51.595Z,3.73
2018-06-19T22:33:22.247Z,4.33
2018-06-19T22:35:52.723Z,3.77
2018-06-19T22:38:22.783Z,3.50
2018-06-19T22:40:52.998Z,3.53
2018-06-19T22:43:23.340Z,3.60
2018-06-19T22:45:53.465Z,3.63
2018-06-19T22:48:23.455Z,3.57
2018-06-19T22:50:53.848Z,4.00
2018-06-19T22:53:24.533Z,3.40
2018-06-19T22:55:54.579Z,3.00
2018-06-19T22:58:24.984Z,3.70
2018-06-19T23:00:54.977Z,3.40
2018-06-19T23:03:25.218Z,3.33
2018-06-19T23:05:55.548Z,3.37
2018-06-19T23:08:25.601Z,3.30
2018-06-19T23:10:55.706Z,3.30
2018-06-19T23:13:25.856Z,3.33
2018-06-19T23:15:56.191Z,3.40
2018-06-19T23:18:26.629Z,3.27
2018-06-19T23:20:56.982Z,2.93
2018-06-19T23:23:27.125Z,2.90
2018-06-19T23:25:57.229Z,3.10
2018-06-19T23:28:27.419Z,3.17
2018-06-19T23:30:57.393Z,3.20
2018-06-19T23:33:27.894Z,3.17
2018-06-19T23:35:57.855Z,3.10
2018-06-19T23:38:27.893Z,3.20
2018-06-19T23:40:57.987Z,3.20
2018-06-19T23:43:28.337Z,3.20
2018-06-19T23:45:58.269Z,2.97
2018-06-19T23:48:28.443Z,3.13
2018-06-19T23:50:58.443Z,2.93
2018-06-19T23:53:28.491Z,3.37
2018-06-19T23:55:58.591Z,3.07
2018-06-19T23:58:28.600Z,3.30
